createdAt,value
2018-12-08T00:00:13.864Z,933.18
2018-12-08T00:01:13.765Z,933.25
2018-12-08T00:02:13.667Z,933.21
2018-12-08T00:03:13.585Z,933.25
2018-12-08T00:04:13.470Z,933.31
2018-12-08T00:05:13.373Z,933.38
2018-12-08T00:06:13.272Z,933.37
2018-12-08T00:07:13.176Z,933.27
2018-12-08T00:08:13.094Z,933.38
2018-12-08T00:09:12.978Z,933.33
2018-12-08T00:10:12.876Z,933.39
2018-12-08T00:11:12.777Z,933.44
2018-12-08T00:12:12.680Z,933.46
2018-12-08T00:13:12.597Z,933.45
2018-12-08T00:14:12.484Z,933.52
2018-12-08T00:15:12.382Z,933.50
2018-12-08T00:16:12.284Z,933.44
2018-12-08T00:17:12.186Z,933.37
2018-12-08T00:18:12.101Z,933.49
2018-12-08T00:19:11.986Z,933.55
2018-12-08T00:20:11.890Z,933.48
2018-12-08T00:21:11.790Z,933.42
2018-12-08T00:22:11.690Z,933.42
2018-12-08T00:23:11.689Z,933.39
2018-12-08T00:24:11.492Z,933.56
2018-12-08T00:25:11.396Z,933.45
2018-12-08T00:26:11.299Z,933.55
2018-12-08T00:27:11.195Z,933.47
2018-12-08T00:28:11.115Z,933.35
2018-12-08T00:29:10.996Z,933.31
2018-12-08T00:30:10.899Z,933.35
2018-12-08T00:31:10.798Z,933.39
2018-12-08T00:32:10.704Z,933.43
2018-12-08T00:33:10.619Z,933.44
2018-12-08T00:34:10.500Z,933.37
2018-12-08T00:35:10.439Z,933.48
2018-12-08T00:36:10.303Z,933.47
2018-12-08T00:37:10.203Z,933.52
2018-12-08T00:38:10.122Z,933.52
2018-12-08T00:39:10.007Z,933.43
2018-12-08T00:40:09.905Z,933.39
2018-12-08T00:41:09.808Z,933.42
2018-12-08T00:42:09.709Z,933.41
2018-12-08T00:43:09.622Z,933.27
2018-12-08T00:44:09.508Z,933.56
2018-12-08T00:45:09.409Z,933.33
2018-12-08T00:46:09.307Z,933.49
2018-12-08T00:47:09.209Z,933.60
2018-12-08T00:48:09.127Z,933.50
2018-12-08T00:49:09.010Z,933.55
2018-12-08T00:50:08.911Z,933.54
2018-12-08T00:51:08.810Z,933.56
2018-12-08T00:52:08.711Z,933.55
2018-12-08T00:53:08.631Z,933.61
2018-12-08T00:54:08.513Z,933.64
2018-12-08T00:55:08.412Z,933.58
2018-12-08T00:56:08.311Z,933.58
2018-12-08T00:57:08.214Z,933.58
2018-12-08T00:58:08.130Z,933.77
2018-12-08T00:59:08.014Z,933.79
2018-12-08T01:00:08.017Z,933.73
2018-12-08T01:01:07.813Z,933.81
2018-12-08T01:02:07.714Z,933.73
2018-12-08T01:03:07.628Z,933.78
2018-12-08T01:04:07.578Z,933.82
2018-12-08T01:05:07.413Z,933.81
2018-12-08T01:06:07.314Z,933.81
2018-12-08T01:07:07.214Z,933.92
2018-12-08T01:08:07.131Z,933.90
2018-12-08T01:09:07.014Z,933.89
2018-12-08T01:10:06.913Z,933.76
2018-12-08T01:11:06.817Z,933.79
2018-12-08T01:12:06.714Z,933.85
2018-12-08T01:13:06.631Z,933.84
2018-12-08T01:14:06.619Z,933.86
2018-12-08T01:15:06.416Z,933.92
2018-12-08T01:16:06.313Z,933.92
2018-12-08T01:17:06.210Z,934.00
2018-12-08T01:18:06.114Z,934.05
2018-12-08T01:19:06.028Z,934.09
2018-12-08T01:20:05.912Z,934.00
2018-12-08T01:21:05.917Z,933.99
2018-12-08T01:22:05.712Z,934.03
2018-12-08T01:23:05.614Z,934.02
2018-12-08T01:24:05.529Z,934.06
2018-12-08T01:25:05.412Z,934.12
2018-12-08T01:26:05.313Z,934.11
2018-12-08T01:27:05.210Z,934.21
2018-12-08T01:28:05.217Z,934.22
2018-12-08T01:29:05.027Z,934.18
2018-12-08T01:30:04.909Z,934.26
2018-12-08T01:31:04.810Z,934.27
2018-12-08T01:32:04.709Z,934.25
2018-12-08T01:33:04.615Z,934.36
2018-12-08T01:34:04.526Z,934.35
2018-12-08T01:35:04.509Z,934.49
2018-12-08T01:36:04.314Z,934.41
2018-12-08T01:37:04.213Z,934.36
2018-12-08T01:38:04.112Z,934.51
2018-12-08T01:39:04.027Z,934.39
2018-12-08T01:40:03.911Z,934.50
2018-12-08T01:41:03.809Z,934.54
2018-12-08T01:42:03.818Z,934.63
2018-12-08T01:43:03.610Z,934.65
2018-12-08T01:44:03.526Z,934.51
2018-12-08T01:45:03.410Z,934.55
2018-12-08T01:46:03.308Z,934.53
2018-12-08T01:47:03.213Z,934.55
2018-12-08T01:48:03.110Z,934.38
2018-12-08T01:49:03.131Z,934.38
2018-12-08T01:50:02.907Z,934.42
2018-12-08T01:51:02.810Z,934.39
2018-12-08T01:52:02.711Z,934.32
2018-12-08T01:53:02.607Z,934.27
2018-12-08T01:54:02.522Z,934.19
2018-12-08T01:55:02.405Z,934.08
2018-12-08T01:56:02.409Z,934.16
2018-12-08T01:57:02.206Z,934.21
2018-12-08T01:58:02.103Z,934.11
2018-12-08T01:59:02.023Z,934.12
2018-12-08T02:00:01.910Z,934.08
2018-12-08T02:01:01.824Z,934.03
2018-12-08T02:02:01.702Z,934.13
2018-12-08T02:03:01.702Z,934.21
2018-12-08T02:04:01.519Z,933.89
2018-12-08T02:05:01.413Z,934.07
2018-12-08T02:06:01.300Z,933.95
2018-12-08T02:07:01.201Z,933.98
2018-12-08T02:08:01.100Z,934.03
2018-12-08T02:09:01.020Z,933.86
2018-12-08T02:10:00.899Z,933.79
2018-12-08T02:11:00.797Z,933.85
2018-12-08T02:12:00.698Z,933.82
2018-12-08T02:13:00.597Z,933.89
2018-12-08T02:14:00.510Z,934.00
2018-12-08T02:15:00.397Z,934.04
2018-12-08T02:16:00.299Z,934.06
2018-12-08T02:17:00.194Z,934.10
2018-12-08T02:18:00.092Z,934.22
2018-12-08T02:19:00.031Z,934.29
2018-12-08T02:19:59.891Z,934.25
2018-12-08T02:20:59.793Z,934.27
2018-12-08T02:21:59.689Z,934.29
2018-12-08T02:22:59.589Z,934.44
2018-12-08T02:23:59.505Z,934.15
2018-12-08T02:24:59.388Z,934.43
2018-12-08T02:25:59.288Z,934.53
2018-12-08T02:26:59.201Z,934.51
2018-12-08T02:27:59.085Z,934.61
2018-12-08T02:28:59.005Z,934.54
2018-12-08T02:29:58.885Z,934.41
2018-12-08T02:30:59.101Z,934.55
2018-12-08T02:31:58.682Z,934.64
2018-12-08T02:32:58.586Z,934.66
2018-12-08T02:33:58.501Z,934.76
2018-12-08T02:34:58.388Z,934.79
2018-12-08T02:35:58.283Z,934.80
2018-12-08T02:36:58.183Z,934.84
2018-12-08T02:37:58.080Z,934.88
2018-12-08T02:38:57.995Z,934.99
2018-12-08T02:39:57.879Z,934.92
2018-12-08T02:40:57.775Z,934.97
2018-12-08T02:41:57.676Z,934.95
2018-12-08T02:42:57.576Z,935.01
2018-12-08T02:43:57.499Z,934.95
2018-12-08T02:44:57.376Z,935.00
2018-12-08T02:45:57.273Z,935.06
2018-12-08T02:46:57.174Z,935.02
2018-12-08T02:47:57.088Z,935.02
2018-12-08T02:48:56.988Z,935.09
2018-12-08T02:49:56.872Z,935.12
2018-12-08T02:50:56.771Z,935.04
2018-12-08T02:51:56.669Z,935.23
2018-12-08T02:52:56.573Z,935.16
2018-12-08T02:53:56.486Z,935.22
2018-12-08T02:54:56.371Z,935.11
2018-12-08T02:55:56.267Z,935.12
2018-12-08T02:56:56.167Z,935.05
2018-12-08T02:57:56.067Z,935.19
2018-12-08T02:58:55.966Z,935.29
2018-12-08T02:59:55.883Z,935.29
2018-12-08T03:00:55.764Z,935.30
2018-12-08T03:01:55.663Z,935.34
2018-12-08T03:02:55.562Z,935.37
2018-12-08T03:03:55.469Z,935.40
2018-12-08T03:04:55.378Z,935.43
2018-12-08T03:05:55.259Z,935.55
2018-12-08T03:06:55.159Z,935.54
2018-12-08T03:07:55.059Z,935.65
2018-12-08T03:08:54.961Z,935.68
2018-12-08T03:09:54.877Z,935.67
2018-12-08T03:10:54.756Z,935.77
2018-12-08T03:11:54.658Z,935.76
2018-12-08T03:12:54.558Z,935.77
2018-12-08T03:13:54.456Z,935.87
2018-12-08T03:14:54.371Z,935.75
2018-12-08T03:15:54.255Z,935.96
2018-12-08T03:16:54.158Z,935.67
2018-12-08T03:17:54.054Z,935.97
2018-12-08T03:18:53.955Z,936.03
2018-12-08T03:19:53.869Z,935.91
2018-12-08T03:20:53.753Z,935.95
2018-12-08T03:21:53.662Z,936.05
2018-12-08T03:22:53.550Z,936.09
2018-12-08T03:23:53.451Z,936.09
2018-12-08T03:24:53.369Z,936.03
2018-12-08T03:25:53.249Z,936.11
2018-12-08T03:26:53.147Z,936.05
2018-12-08T03:27:53.047Z,936.06
2018-12-08T03:28:52.946Z,936.11
2018-12-08T03:29:52.863Z,936.07
2018-12-08T03:30:52.751Z,936.01
2018-12-08T03:31:52.652Z,935.71
2018-12-08T03:32:52.549Z,936.06
2018-12-08T03:33:52.443Z,936.09
2018-12-08T03:34:52.360Z,936.19
2018-12-08T03:35:52.251Z,936.28
2018-12-08T03:36:52.142Z,936.33
2018-12-08T03:37:52.042Z,936.16
2018-12-08T03:38:51.947Z,936.26
2018-12-08T03:39:51.858Z,936.41
2018-12-08T03:40:51.844Z,936.47
2018-12-08T03:41:51.639Z,936.53
2018-12-08T03:42:51.538Z,936.54
2018-12-08T03:43:51.443Z,936.32
2018-12-08T03:44:51.359Z,936.53
2018-12-08T03:45:51.237Z,936.59
2018-12-08T03:46:51.143Z,936.58
2018-12-08T03:47:51.209Z,936.58
2018-12-08T03:48:50.936Z,936.57
2018-12-08T03:49:50.852Z,936.63
2018-12-08T03:50:50.736Z,936.64
2018-12-08T03:51:50.639Z,936.64
2018-12-08T03:52:50.534Z,936.54
2018-12-08T03:53:50.436Z,936.65
2018-12-08T03:54:50.349Z,936.58
2018-12-08T03:55:50.352Z,936.48
2018-12-08T03:56:50.133Z,936.62
2018-12-08T03:57:50.035Z,936.56
2018-12-08T03:58:49.930Z,936.54
2018-12-08T03:59:49.845Z,936.69
2018-12-08T04:00:49.730Z,936.71
2018-12-08T04:01:49.738Z,936.66
2018-12-08T04:02:49.525Z,936.63
2018-12-08T04:03:49.428Z,936.64
2018-12-08T04:04:49.345Z,936.68
2018-12-08T04:05:49.226Z,936.61
2018-12-08T04:06:49.126Z,936.64
2018-12-08T04:07:49.026Z,936.61
2018-12-08T04:08:49.027Z,936.63
2018-12-08T04:09:48.840Z,936.67
2018-12-08T04:10:48.752Z,936.71
2018-12-08T04:11:48.629Z,936.78
2018-12-08T04:12:48.525Z,936.72
2018-12-08T04:13:48.420Z,936.87
2018-12-08T04:14:48.340Z,936.80
2018-12-08T04:15:48.319Z,936.88
2018-12-08T04:16:48.117Z,936.87
2018-12-08T04:17:48.017Z,936.92
2018-12-08T04:18:47.921Z,936.83
2018-12-08T04:19:47.831Z,936.85
2018-12-08T04:20:47.715Z,936.80
2018-12-08T04:21:47.613Z,936.81
2018-12-08T04:22:47.615Z,936.81
2018-12-08T04:23:47.459Z,936.86
2018-12-08T04:24:47.352Z,936.87
2018-12-08T04:25:47.212Z,936.84
2018-12-08T04:26:47.110Z,936.85
2018-12-08T04:27:47.008Z,936.87
2018-12-08T04:28:46.909Z,936.83
2018-12-08T04:29:46.928Z,936.76
2018-12-08T04:30:46.707Z,936.80
2018-12-08T04:31:46.606Z,936.84
2018-12-08T04:32:46.505Z,936.88
2018-12-08T04:33:46.408Z,936.86
2018-12-08T04:34:46.319Z,936.84
2018-12-08T04:35:46.201Z,936.92
2018-12-08T04:36:46.205Z,936.95
2018-12-08T04:37:46.004Z,937.00
2018-12-08T04:38:45.900Z,937.00
2018-12-08T04:39:45.819Z,936.94
2018-12-08T04:40:45.713Z,937.00
2018-12-08T04:41:45.599Z,936.92
2018-12-08T04:42:45.497Z,936.97
2018-12-08T04:43:45.503Z,936.98
2018-12-08T04:44:45.299Z,936.98
2018-12-08T04:45:45.213Z,936.96
2018-12-08T04:46:45.094Z,937.00
2018-12-08T04:47:44.996Z,936.97
2018-12-08T04:48:44.897Z,936.91
2018-12-08T04:49:44.812Z,936.98
2018-12-08T04:50:44.813Z,937.00
2018-12-08T04:51:44.591Z,936.98
2018-12-08T04:52:44.496Z,936.99
2018-12-08T04:53:44.390Z,936.90
2018-12-08T04:54:44.292Z,936.95
2018-12-08T04:55:44.203Z,937.09
2018-12-08T04:56:44.091Z,937.06
2018-12-08T04:57:44.092Z,937.07
2018-12-08T04:58:43.888Z,937.06
2018-12-08T04:59:43.791Z,937.04
2018-12-08T05:00:43.707Z,937.08
2018-12-08T05:01:43.594Z,937.00
2018-12-08T05:02:43.488Z,937.04
2018-12-08T05:03:43.386Z,937.09
2018-12-08T05:04:43.400Z,937.09
2018-12-08T05:05:43.201Z,937.10
2018-12-08T05:06:43.087Z,937.19
2018-12-08T05:07:42.988Z,937.14
2018-12-08T05:08:42.902Z,937.04
2018-12-08T05:09:42.787Z,937.10
2018-12-08T05:10:42.809Z,937.08
2018-12-08T05:11:42.584Z,937.16
2018-12-08T05:12:42.486Z,937.12
2018-12-08T05:13:42.384Z,937.09
2018-12-08T05:14:42.283Z,937.22
2018-12-08T05:15:42.200Z,937.13
2018-12-08T05:16:42.083Z,937.11
2018-12-08T05:17:41.983Z,937.13
2018-12-08T05:18:41.882Z,937.12
2018-12-08T05:19:41.782Z,937.06
2018-12-08T05:20:41.699Z,937.13
2018-12-08T05:21:41.581Z,937.16
2018-12-08T05:22:41.483Z,937.18
2018-12-08T05:23:41.387Z,937.22
2018-12-08T05:24:41.279Z,937.24
2018-12-08T05:25:41.196Z,937.06
2018-12-08T05:26:41.080Z,937.08
2018-12-08T05:27:40.977Z,937.05
2018-12-08T05:28:40.877Z,937.04
2018-12-08T05:29:40.775Z,937.08
2018-12-08T05:30:40.694Z,937.10
2018-12-08T05:31:40.580Z,937.03
2018-12-08T05:32:40.478Z,937.07
2018-12-08T05:33:40.374Z,936.99
2018-12-08T05:34:40.276Z,936.92
2018-12-08T05:35:40.192Z,936.95
2018-12-08T05:36:40.074Z,936.89
2018-12-08T05:37:39.971Z,936.92
2018-12-08T05:38:39.871Z,936.96
2018-12-08T05:39:39.773Z,936.91
2018-12-08T05:40:39.687Z,936.92
2018-12-08T05:41:39.569Z,936.96
2018-12-08T05:42:39.470Z,936.99
2018-12-08T05:43:39.368Z,937.02
2018-12-08T05:44:39.269Z,937.04
2018-12-08T05:45:39.184Z,937.09
2018-12-08T05:46:39.066Z,937.10
2018-12-08T05:47:38.966Z,937.13
2018-12-08T05:48:38.867Z,937.13
2018-12-08T05:49:38.763Z,937.08
2018-12-08T05:50:38.680Z,937.12
2018-12-08T05:51:38.564Z,937.12
2018-12-08T05:52:38.462Z,937.05
2018-12-08T05:53:38.362Z,937.07
2018-12-08T05:54:38.262Z,937.06
2018-12-08T05:55:38.180Z,937.05
2018-12-08T05:56:38.059Z,937.00
2018-12-08T05:57:37.959Z,936.97
2018-12-08T05:58:37.857Z,937.05
2018-12-08T05:59:37.758Z,937.06
2018-12-08T06:00:37.674Z,937.10
2018-12-08T06:01:37.557Z,937.08
2018-12-08T06:02:37.456Z,937.12
2018-12-08T06:03:37.355Z,937.12
2018-12-08T06:04:37.254Z,937.11
2018-12-08T06:05:37.198Z,937.17
2018-12-08T06:06:37.051Z,937.12
2018-12-08T06:07:36.951Z,937.08
2018-12-08T06:08:36.850Z,937.11
2018-12-08T06:09:36.857Z,937.11
2018-12-08T06:10:36.664Z,937.10
2018-12-08T06:11:36.549Z,937.04
2018-12-08T06:12:36.448Z,937.05
2018-12-08T06:13:36.345Z,937.12
2018-12-08T06:14:36.244Z,937.09
2018-12-08T06:15:36.165Z,937.07
2018-12-08T06:16:36.043Z,937.05
2018-12-08T06:17:35.941Z,937.04
2018-12-08T06:18:35.841Z,937.17
2018-12-08T06:19:35.740Z,937.13
2018-12-08T06:20:35.657Z,937.04
2018-12-08T06:21:35.538Z,937.01
2018-12-08T06:22:35.436Z,937.15
2018-12-08T06:23:35.337Z,937.14
2018-12-08T06:24:35.238Z,937.02
2018-12-08T06:25:35.151Z,937.04
2018-12-08T06:26:35.033Z,937.04
2018-12-08T06:27:34.934Z,936.95
2018-12-08T06:28:34.833Z,936.93
2018-12-08T06:29:34.734Z,936.99
2018-12-08T06:30:34.645Z,937.03
2018-12-08T06:31:34.533Z,936.97
2018-12-08T06:32:34.428Z,936.96
2018-12-08T06:33:34.327Z,937.00
2018-12-08T06:34:34.226Z,936.95
2018-12-08T06:35:34.128Z,937.04
2018-12-08T06:36:34.041Z,937.08
2018-12-08T06:37:33.924Z,937.04
2018-12-08T06:38:33.824Z,937.02
2018-12-08T06:39:33.733Z,937.10
2018-12-08T06:40:33.623Z,937.01
2018-12-08T06:41:33.637Z,937.07
2018-12-08T06:42:33.421Z,937.00
2018-12-08T06:43:33.319Z,937.00
2018-12-08T06:44:33.219Z,936.95
2018-12-08T06:45:33.118Z,936.98
2018-12-08T06:46:33.033Z,937.00
2018-12-08T06:47:32.916Z,936.94
2018-12-08T06:48:32.932Z,936.85
2018-12-08T06:49:32.711Z,936.89
2018-12-08T06:50:32.614Z,936.97
2018-12-08T06:51:32.526Z,936.94
2018-12-08T06:52:32.409Z,936.98
2018-12-08T06:53:32.306Z,936.92
2018-12-08T06:54:32.206Z,937.02
2018-12-08T06:55:32.217Z,937.15
2018-12-08T06:56:32.023Z,937.05
2018-12-08T06:57:31.906Z,937.14
2018-12-08T06:58:31.807Z,937.13
2018-12-08T06:59:31.701Z,937.20
2018-12-08T07:00:31.602Z,937.14
2018-12-08T07:01:31.516Z,937.13
2018-12-08T07:02:31.511Z,937.16
2018-12-08T07:03:31.299Z,937.16
2018-12-08T07:04:31.203Z,937.23
2018-12-08T07:05:31.098Z,937.22
2018-12-08T07:06:31.013Z,937.23
2018-12-08T07:07:30.895Z,937.16
2018-12-08T07:08:30.795Z,937.16
2018-12-08T07:09:30.797Z,937.25
2018-12-08T07:10:30.592Z,937.23
2018-12-08T07:11:30.525Z,937.32
2018-12-08T07:12:30.392Z,937.16
2018-12-08T07:13:30.292Z,937.09
2018-12-08T07:14:30.189Z,937.20
2018-12-08T07:15:30.088Z,937.16
2018-12-08T07:16:30.107Z,937.15
2018-12-08T07:17:29.886Z,937.19
2018-12-08T07:18:29.786Z,937.19
2018-12-08T07:19:29.684Z,937.24
2018-12-08T07:20:29.585Z,937.24
2018-12-08T07:21:29.497Z,937.25
2018-12-08T07:22:29.384Z,937.21
2018-12-08T07:23:29.384Z,937.23
2018-12-08T07:24:29.191Z,937.21
2018-12-08T07:25:29.080Z,937.19
2018-12-08T07:26:28.995Z,937.20
2018-12-08T07:27:28.878Z,937.23
2018-12-08T07:28:28.779Z,937.27
2018-12-08T07:29:28.676Z,937.27
2018-12-08T07:30:28.694Z,937.27
2018-12-08T07:31:28.491Z,937.39
2018-12-08T07:32:28.375Z,937.39
2018-12-08T07:33:28.274Z,937.35
2018-12-08T07:34:28.175Z,937.26
2018-12-08T07:35:28.071Z,937.30
2018-12-08T07:36:27.989Z,937.44
2018-12-08T07:37:27.869Z,937.42
2018-12-08T07:38:27.873Z,937.37
2018-12-08T07:39:27.669Z,937.30
2018-12-08T07:40:27.568Z,937.42
2018-12-08T07:41:27.485Z,937.36
2018-12-08T07:42:27.367Z,937.42
2018-12-08T07:43:27.266Z,937.47
2018-12-08T07:44:27.167Z,937.42
2018-12-08T07:45:27.173Z,937.45
2018-12-08T07:46:26.983Z,937.46
2018-12-08T07:47:26.864Z,937.44
2018-12-08T07:48:26.763Z,937.37
2018-12-08T07:49:26.664Z,937.40
2018-12-08T07:50:26.645Z,937.48
2018-12-08T07:51:26.579Z,937.34
2018-12-08T07:52:26.362Z,937.47
2018-12-08T07:53:26.260Z,937.40
2018-12-08T07:54:26.161Z,937.45
2018-12-08T07:55:26.061Z,937.48
2018-12-08T07:56:25.977Z,937.46
2018-12-08T07:57:25.859Z,937.40
2018-12-08T07:58:25.759Z,937.31
2018-12-08T07:59:25.658Z,937.32
2018-12-08T08:00:25.556Z,937.34
2018-12-08T08:01:25.473Z,937.28
2018-12-08T08:02:25.356Z,937.20
2018-12-08T08:03:25.255Z,937.27
2018-12-08T08:04:25.155Z,937.26
2018-12-08T08:05:25.056Z,937.12
2018-12-08T08:06:24.968Z,937.14
2018-12-08T08:07:24.859Z,937.18
2018-12-08T08:08:24.752Z,937.26
2018-12-08T08:09:24.652Z,937.27
2018-12-08T08:10:24.552Z,937.28
2018-12-08T08:11:24.465Z,937.23
2018-12-08T08:12:24.562Z,937.27
2018-12-08T08:13:24.247Z,937.21
2018-12-08T08:14:24.147Z,937.14
2018-12-08T08:15:24.052Z,937.06
2018-12-08T08:16:23.965Z,937.04
2018-12-08T08:17:23.847Z,937.02
2018-12-08T08:18:23.744Z,937.02
2018-12-08T08:19:23.649Z,937.12
2018-12-08T08:20:23.547Z,937.07
2018-12-08T08:21:23.445Z,937.02
2018-12-08T08:22:23.361Z,937.04
2018-12-08T08:23:23.244Z,936.97
2018-12-08T08:24:23.142Z,937.07
2018-12-08T08:25:23.040Z,936.99
2018-12-08T08:26:22.946Z,936.97
2018-12-08T08:27:22.854Z,937.06
2018-12-08T08:28:22.740Z,937.04
2018-12-08T08:29:22.643Z,937.00
2018-12-08T08:30:22.539Z,937.01
2018-12-08T08:31:22.440Z,937.03
2018-12-08T08:32:22.354Z,936.99
2018-12-08T08:33:22.238Z,936.95
2018-12-08T08:34:22.135Z,936.97
2018-12-08T08:35:22.041Z,937.00
2018-12-08T08:36:21.939Z,936.85
2018-12-08T08:37:21.852Z,936.95
2018-12-08T08:38:21.736Z,936.98
2018-12-08T08:39:21.633Z,936.84
2018-12-08T08:40:21.534Z,936.91
2018-12-08T08:41:21.439Z,936.91
2018-12-08T08:42:21.354Z,936.85
2018-12-08T08:43:21.233Z,936.94
2018-12-08T08:44:21.133Z,936.85
2018-12-08T08:45:21.033Z,936.93
2018-12-08T08:46:21.050Z,936.91
2018-12-08T08:47:20.848Z,936.91
2018-12-08T08:48:20.733Z,936.91
2018-12-08T08:49:20.635Z,936.85
2018-12-08T08:50:20.605Z,936.79
2018-12-08T08:51:20.431Z,936.81
2018-12-08T08:52:20.346Z,936.63
2018-12-08T08:53:20.229Z,936.77
2018-12-08T08:54:20.131Z,936.70
2018-12-08T08:55:20.031Z,936.71
2018-12-08T08:56:19.929Z,936.72
2018-12-08T08:57:19.846Z,936.73
2018-12-08T08:58:19.730Z,936.72
2018-12-08T08:59:19.630Z,936.76
2018-12-08T09:00:19.632Z,936.82
2018-12-08T09:01:19.427Z,936.76
2018-12-08T09:02:19.346Z,936.87
2018-12-08T09:03:19.228Z,936.87
2018-12-08T09:04:19.145Z,936.81
2018-12-08T09:05:19.027Z,936.81
2018-12-08T09:06:18.933Z,936.89
2018-12-08T09:07:18.844Z,936.92
2018-12-08T09:08:18.728Z,936.84
2018-12-08T09:09:18.631Z,936.85
2018-12-08T09:10:18.526Z,936.83
2018-12-08T09:11:18.428Z,936.90
2018-12-08T09:12:18.344Z,936.89
2018-12-08T09:13:18.245Z,936.94
2018-12-08T09:14:18.127Z,936.94
2018-12-08T09:15:18.027Z,936.88
2018-12-08T09:16:17.929Z,936.86
2018-12-08T09:17:17.843Z,936.80
2018-12-08T09:18:17.727Z,936.85
2018-12-08T09:19:17.627Z,936.81
2018-12-08T09:20:17.529Z,936.72
2018-12-08T09:21:17.427Z,936.80
2018-12-08T09:22:17.344Z,936.71
2018-12-08T09:23:17.228Z,936.79
2018-12-08T09:24:17.128Z,936.87
2018-12-08T09:25:17.028Z,936.77
2018-12-08T09:26:16.929Z,936.78
2018-12-08T09:27:16.851Z,936.88
2018-12-08T09:28:16.728Z,936.85
2018-12-08T09:29:16.627Z,936.91
2018-12-08T09:30:16.531Z,936.82
2018-12-08T09:31:16.429Z,936.89
2018-12-08T09:32:16.358Z,936.79
2018-12-08T09:33:16.234Z,936.87
2018-12-08T09:34:16.127Z,936.82
2018-12-08T09:35:16.030Z,936.82
2018-12-08T09:36:15.928Z,936.71
2018-12-08T09:37:15.846Z,936.75
2018-12-08T09:38:15.727Z,936.75
2018-12-08T09:39:15.630Z,936.69
2018-12-08T09:40:15.529Z,936.76
2018-12-08T09:41:15.428Z,936.77
2018-12-08T09:42:15.344Z,936.54
2018-12-08T09:43:15.232Z,936.75
2018-12-08T09:44:15.154Z,936.69
2018-12-08T09:45:15.031Z,936.62
2018-12-08T09:46:14.928Z,936.56
2018-12-08T09:47:14.845Z,936.53
2018-12-08T09:48:15.066Z,936.52
2018-12-08T09:49:14.629Z,936.56
2018-12-08T09:53:24.280Z,936.44
2018-12-08T09:54:24.451Z,936.45
2018-12-08T09:55:24.060Z,936.56
2018-12-08T09:56:23.960Z,936.56
2018-12-08T09:57:23.876Z,936.49
2018-12-08T09:58:23.756Z,936.53
2018-12-08T09:59:23.791Z,936.43
2018-12-08T10:00:23.576Z,936.48
2018-12-08T10:01:23.455Z,936.56
2018-12-08T10:02:23.374Z,936.55
2018-12-08T10:03:23.259Z,936.55
2018-12-08T10:04:23.155Z,936.51
2018-12-08T10:05:23.056Z,936.57
2018-12-08T10:06:23.074Z,936.58
2018-12-08T10:07:22.874Z,936.58
2018-12-08T10:08:22.759Z,936.43
2018-12-08T10:09:22.655Z,936.44
2018-12-08T10:10:22.554Z,936.50
2018-12-08T10:11:22.459Z,936.50
2018-12-08T10:12:22.620Z,936.41
2018-12-08T10:13:22.253Z,936.44
2018-12-08T10:14:22.153Z,936.36
2018-12-08T10:15:22.053Z,936.31
2018-12-08T10:16:21.956Z,936.34
2018-12-08T10:17:21.870Z,936.35
2018-12-08T10:18:21.752Z,936.31
2018-12-08T10:19:21.652Z,936.32
2018-12-08T10:20:21.554Z,936.37
2018-12-08T10:21:21.454Z,936.40
2018-12-08T10:22:21.369Z,936.40
2018-12-08T10:23:21.258Z,936.28
2018-12-08T10:24:21.153Z,936.45
2018-12-08T10:25:21.057Z,936.23
2018-12-08T10:26:20.958Z,936.30
2018-12-08T10:27:20.855Z,936.30
2018-12-08T10:28:20.772Z,936.16
2018-12-08T10:29:20.656Z,936.35
2018-12-08T10:30:20.562Z,936.23
2018-12-08T10:31:20.456Z,936.35
2018-12-08T10:32:20.362Z,936.17
2018-12-08T10:33:20.278Z,936.14
2018-12-08T10:34:20.162Z,936.25
2018-12-08T10:35:20.057Z,936.23
2018-12-08T10:36:19.956Z,936.25
2018-12-08T10:37:19.855Z,936.12
2018-12-08T10:38:19.772Z,936.11
2018-12-08T10:39:19.657Z,936.20
2018-12-08T10:40:19.556Z,936.16
2018-12-08T10:41:19.456Z,936.18
2018-12-08T10:42:19.361Z,936.16
2018-12-08T10:43:19.273Z,936.08
2018-12-08T10:44:19.164Z,936.07
2018-12-08T10:45:19.055Z,935.91
2018-12-08T10:46:18.958Z,936.00
2018-12-08T10:47:18.859Z,936.04
2018-12-08T10:48:18.780Z,936.07
2018-12-08T10:49:18.658Z,936.09
2018-12-08T10:50:18.561Z,936.06
2018-12-08T10:51:18.460Z,936.13
2018-12-08T10:52:18.361Z,935.98
2018-12-08T10:53:18.276Z,935.91
2018-12-08T10:54:18.160Z,935.89
2018-12-08T10:55:18.061Z,936.03
2018-12-08T10:56:17.963Z,936.01
2018-12-08T10:57:17.864Z,935.92
2018-12-08T10:58:17.777Z,935.89
2018-12-08T10:59:17.668Z,935.92
2018-12-08T11:00:17.564Z,935.84
2018-12-08T11:01:17.573Z,935.93
2018-12-08T11:02:17.364Z,935.92
2018-12-08T11:03:17.277Z,935.85
2018-12-08T11:04:17.165Z,935.83
2018-12-08T11:05:17.067Z,935.85
2018-12-08T11:06:17.200Z,935.79
2018-12-08T11:07:16.863Z,935.87
2018-12-08T11:08:16.783Z,935.66
2018-12-08T11:09:17.504Z,935.88
2018-12-08T11:10:16.563Z,935.73
2018-12-08T11:11:16.468Z,935.89
2018-12-08T11:12:16.369Z,935.93
2018-12-08T11:13:16.287Z,935.77
2018-12-08T11:14:16.166Z,935.82
2018-12-08T11:15:16.185Z,935.82
2018-12-08T11:16:15.968Z,935.88
2018-12-08T11:17:15.864Z,935.99
2018-12-08T11:18:15.784Z,935.90
2018-12-08T11:19:15.669Z,935.94
2018-12-08T11:20:15.569Z,935.77
2018-12-08T11:21:15.470Z,935.80
2018-12-08T11:22:15.466Z,935.82
2018-12-08T11:23:15.290Z,935.78
2018-12-08T11:24:15.170Z,935.88
2018-12-08T11:25:15.068Z,935.89
2018-12-08T11:26:14.969Z,935.90
2018-12-08T11:27:14.867Z,935.82
2018-12-08T11:28:14.785Z,935.79
2018-12-08T11:29:14.771Z,935.83
2018-12-08T11:30:14.568Z,935.78
2018-12-08T11:31:14.471Z,935.77
2018-12-08T11:32:14.371Z,935.86
2018-12-08T11:33:14.299Z,935.84
2018-12-08T11:34:14.171Z,935.86
2018-12-08T11:35:14.076Z,935.76
2018-12-08T11:36:14.069Z,935.81
2018-12-08T11:37:13.873Z,935.80
2018-12-08T11:38:13.788Z,935.90
2018-12-08T11:39:13.672Z,935.91
2018-12-08T11:40:13.573Z,935.90
2018-12-08T11:41:13.469Z,935.90
2018-12-08T11:42:13.371Z,935.93
2018-12-08T11:43:13.397Z,935.91
2018-12-08T11:44:13.170Z,935.82
2018-12-08T11:45:13.075Z,935.78
2018-12-08T11:46:12.971Z,935.80
2018-12-08T11:47:12.870Z,935.70
2018-12-08T11:48:12.786Z,935.73
2018-12-08T11:49:12.672Z,935.75
2018-12-08T11:50:12.673Z,935.74
2018-12-08T11:51:12.472Z,935.75
2018-12-08T11:52:12.372Z,935.71
2018-12-08T11:53:12.291Z,935.78
2018-12-08T11:54:12.176Z,935.81
2018-12-08T11:55:12.075Z,935.74
2018-12-08T11:56:12.097Z,935.74
2018-12-08T11:57:11.883Z,935.65
2018-12-08T11:58:11.788Z,935.79
2018-12-08T11:59:11.675Z,935.74
2018-12-08T12:00:11.576Z,935.72
2018-12-08T12:01:11.471Z,935.74
2018-12-08T12:02:16.464Z,935.73
2018-12-08T12:03:11.292Z,935.83
2018-12-08T12:04:11.175Z,935.74
2018-12-08T12:05:11.074Z,935.80
2018-12-08T12:06:10.973Z,935.69
2018-12-08T12:07:10.876Z,935.75
2018-12-08T12:08:10.793Z,935.72
2018-12-08T12:09:10.674Z,935.63
2018-12-08T12:10:10.576Z,935.65
2018-12-08T12:11:10.477Z,935.72
2018-12-08T12:12:10.376Z,935.69
2018-12-08T12:13:10.276Z,935.56
2018-12-08T12:14:10.193Z,935.54
2018-12-08T12:15:10.074Z,935.57
2018-12-08T12:16:09.975Z,935.64
2018-12-08T12:17:09.871Z,935.59
2018-12-08T12:18:09.776Z,935.51
2018-12-08T12:19:09.688Z,935.53
2018-12-08T12:20:09.576Z,935.56
2018-12-08T12:21:09.470Z,935.57
2018-12-08T12:22:10.014Z,935.46
2018-12-08T12:23:09.278Z,935.55
2018-12-08T12:24:09.264Z,935.46
2018-12-08T12:25:09.072Z,935.43
2018-12-08T12:26:08.974Z,935.39
2018-12-08T12:27:08.875Z,935.48
2018-12-08T12:28:08.778Z,935.39
2018-12-08T12:29:08.688Z,935.44
2018-12-08T12:30:08.587Z,935.40